Terminal Aerodrome Forecast
Issued by NWS

Home | Current Version | Previous Version | Text Only | Print | Product List | Glossary On
Versions: 1 2 3 4 5 6 7 8 9 10 11 12 13 14 15
000
FTUS41 KPHI 191100 RRA
TAFPNE
TAF
KPNE 191141Z 1912/2012 02010KT P6SM FEW080
     FM191400 05013KT P6SM SCT060
     FM191800 10011KT P6SM SCT060
     FM200300 09007KT P6SM BKN040
     FM200900 11004KT P6SM OVC025=

USA.gov is the U.S. government's official web portal to all federal, state and local government web resources and services.